FIMPFMEP

Guest
Details From FIMP - SIR SEEWOOSAGUR RAMGOOLAM INTL
To FMEP - ST PIERRE PIERREFONDS
Flight Number -
Tags decoded
Created
Modified
Stats Distance 140 nm / 260 km
Max Altitude 0 ft / 0 m
Waypoints 4
Social Downloads 0
Likes 0
Share VATSIM

Download

Looking for another format? Having issues loading an existing format? Contact us
Advertisement - Login to hide

Notes

Requested: FIMP PLS03 PASAR S20 FMEP

Route

FIMP PLS03 PASAR FMEP

ID Type Via Altitude Latitude Longitude Leg Dist Tot Dist Heading (true) Name
O FIMP APT - 0 ft / 0 m -20.43023˚ 57.68360˚ - 0 nm - SIR SEEWOOSAGUR RAMGOOLAM INTL
PLS03 FIX - 0 ft / 0 m -20.44437˚ 57.70893˚ 1 nm 1 nm 121° / 121° -
PASAR FIX - 0 ft / 0 m -21.01800˚ 56.39944˚ 81 nm 82 nm 245° / 245° -
O FMEP APT - 0 ft / 0 m -21.32004˚ 55.42358˚ 57 nm 140 nm 251° / 252° ST PIERRE PIERREFONDS

Altitude Profile

Advertisement - Login to hide

FIMP

Details ICAO FIMP (MRU)
Name SIR SEEWOOSAGUR RAMGOOLAM INTL
Region Mauritius
Timezone Indian/Mauritius (UTC+4.0)
Stats Elevation 186 ft / 57 m (AMSL)
Location -20.430235° 57.683602°
Runways 1
Magnetic Variation 18.412° W

METAR

FIMP 180700Z 07012KT 9999 SCT018 BKN250 29/21 Q1018

Decode

TAF

TAF TAF FIMP 180510Z 1806/1912 09012KT 9999 SCT018

Decode

Departure Runways

ID Width Length Bearing (true) Bearing (mag) Surface Threshold Offset Overrun Length
14 148 ft / 45 m 11,037 ft / 3,364 m 117.22° 135.63° Asphalt 1,082 ft / 330 m 200 ft / 61 m
32 148 ft / 45 m 11,037 ft / 3,364 m 297.21° 315.62° Asphalt 0 ft / 0 m 0 ft / 0 m

FMEP

Details ICAO FMEP (ZSE)
Name ST PIERRE PIERREFONDS
Region Comoros, Mayotte, Réunion and Madagascar
Timezone Unknown (UTC+0.0)
Stats Elevation 56 ft / 17 m (AMSL)
Location -21.320039° 55.423581°
Runways 1
Magnetic Variation 19.531° W

METAR

FMEP 180700Z AUTO 23007KT CAVOK 29/21 Q1016 NOSIG

Decode

TAF

Not found

Destination Runways

ID Width Length Bearing (true) Bearing (mag) Surface Threshold Offset Overrun Length
15 98 ft / 30 m 6,125 ft / 1,867 m 129.02° 148.55° Asphalt 0 ft / 0 m 0 ft / 0 m
33 98 ft / 30 m 6,125 ft / 1,867 m 309.01° 328.54° Asphalt 0 ft / 0 m 0 ft / 0 m

Popular Alternatives